createdAt,value
2022-11-23T00:01:19.284Z,7.49
2022-11-23T00:03:48.708Z,7.48
2022-11-23T00:06:18.584Z,7.53
2022-11-23T00:08:46.828Z,7.51
2022-11-23T00:11:14.763Z,7.47
2022-11-23T00:13:43.034Z,7.53
2022-11-23T00:16:15.146Z,7.52
2022-11-23T00:18:44.323Z,7.50
2022-11-23T00:21:14.207Z,7.50
2022-11-23T00:23:44.078Z,7.52
2022-11-23T00:26:14.007Z,7.51
2022-11-23T00:28:42.103Z,7.48
2022-11-23T00:31:11.610Z,7.51
2022-11-23T00:33:40.429Z,7.57
2022-11-23T00:36:15.266Z,7.57
2022-11-23T00:38:44.687Z,7.55
2022-11-23T00:41:14.930Z,7.59
2022-11-23T00:43:43.622Z,7.63
2022-11-23T00:46:16.199Z,7.63
2022-11-23T00:48:44.369Z,7.60
2022-11-23T00:51:15.298Z,7.65
2022-11-23T00:53:43.587Z,7.69
2022-11-23T00:56:13.904Z,7.71
2022-11-23T00:58:43.890Z,7.68
2022-11-23T01:01:14.828Z,7.72
2022-11-23T01:03:44.796Z,7.75
2022-11-23T01:06:16.424Z,7.75
2022-11-23T01:08:49.740Z,7.75
2022-11-23T01:11:18.534Z,7.77
2022-11-23T01:13:46.807Z,7.77
2022-11-23T01:16:23.461Z,7.77
2022-11-23T01:18:53.764Z,7.76
2022-11-23T01:21:27.748Z,7.76
2022-11-23T01:23:55.524Z,7.77
2022-11-23T01:26:25.258Z,7.77
2022-11-23T01:28:53.012Z,7.71
2022-11-23T01:31:24.589Z,7.74
2022-11-23T01:33:54.382Z,7.76
2022-11-23T01:36:26.849Z,7.76
2022-11-23T01:38:56.696Z,7.80
2022-11-23T01:41:26.341Z,7.80
2022-11-23T01:43:55.205Z,7.80
2022-11-23T01:46:23.403Z,7.83
2022-11-23T01:48:54.239Z,7.91
2022-11-23T01:51:28.686Z,7.83
2022-11-23T01:54:03.717Z,7.82
2022-11-23T01:56:34.741Z,7.80
2022-11-23T01:59:16.661Z,7.81
2022-11-23T02:01:44.642Z,7.79
2022-11-23T02:04:16.475Z,7.77
2022-11-23T02:06:47.788Z,7.74
2022-11-23T02:09:18.010Z,7.71
2022-11-23T02:11:46.851Z,7.72
2022-11-23T02:17:55.862Z,7.65
2022-11-23T02:20:23.956Z,7.62
2022-11-23T02:23:03.377Z,7.59
2022-11-23T02:25:39.668Z,7.61
2022-11-23T02:28:09.349Z,7.66
2022-11-23T02:30:37.928Z,7.64
2022-11-23T02:33:06.305Z,7.65
2022-11-23T02:35:34.210Z,7.64
2022-11-23T02:38:03.789Z,7.67
2022-11-23T02:40:36.631Z,7.66
2022-11-23T02:43:04.420Z,7.65
2022-11-23T02:45:39.243Z,7.63
2022-11-23T02:48:07.611Z,7.61
2022-11-23T02:50:35.371Z,7.63
2022-11-23T02:53:04.008Z,7.66
2022-11-23T02:55:35.534Z,7.64
2022-11-23T02:58:03.140Z,7.66
2022-11-23T03:00:31.700Z,7.68
2022-11-23T03:03:02.292Z,7.67
2022-11-23T03:05:30.059Z,7.67
2022-11-23T03:08:00.108Z,7.66
2022-11-23T03:10:28.094Z,7.66
2022-11-23T03:12:57.823Z,7.65
2022-11-23T03:15:26.020Z,7.66
2022-11-23T03:17:54.476Z,7.68
2022-11-23T03:20:26.860Z,7.68
2022-11-23T03:22:54.666Z,7.66
2022-11-23T03:25:24.176Z,7.64
2022-11-23T03:27:53.329Z,7.66
2022-11-23T03:30:22.089Z,7.66
2022-11-23T03:32:49.875Z,7.65
2022-11-23T03:35:18.637Z,7.68
2022-11-23T03:37:48.829Z,7.71
2022-11-23T03:40:16.751Z,7.70
2022-11-23T03:42:44.445Z,7.68
2022-11-23T03:45:12.995Z,7.71
2022-11-23T03:47:40.756Z,7.67
2022-11-23T03:50:11.356Z,7.69
2022-11-23T03:52:40.040Z,7.72
2022-11-23T03:55:11.466Z,7.71
2022-11-23T03:57:40.124Z,7.73
2022-11-23T04:00:09.452Z,7.76
2022-11-23T04:02:37.068Z,7.76
2022-11-23T04:05:05.440Z,7.74
2022-11-23T04:07:33.167Z,7.76
2022-11-23T04:10:01.485Z,7.79
2022-11-23T04:12:31.477Z,7.81
2022-11-23T04:15:00.018Z,7.79
2022-11-23T04:17:29.471Z,7.80
2022-11-23T04:19:58.266Z,7.84
2022-11-23T04:22:25.964Z,7.85
2022-11-23T04:24:56.117Z,7.81
2022-11-23T04:27:23.814Z,7.85
2022-11-23T04:29:52.929Z,7.87
2022-11-23T04:32:20.558Z,7.85
2022-11-23T04:34:50.473Z,7.85
2022-11-23T04:37:19.406Z,7.87
2022-11-23T04:39:47.878Z,7.86
2022-11-23T04:42:15.574Z,7.87
2022-11-23T04:44:44.066Z,7.86
2022-11-23T04:47:13.513Z,7.91
2022-11-23T04:49:41.170Z,7.89
2022-11-23T04:52:09.598Z,7.88
2022-11-23T04:54:38.399Z,7.85
2022-11-23T04:57:07.055Z,7.88
2022-11-23T04:59:34.843Z,7.87
2022-11-23T05:02:02.939Z,7.88
2022-11-23T05:04:34.385Z,7.81
2022-11-23T05:07:02.876Z,7.84
2022-11-23T05:09:31.187Z,7.84
2022-11-23T05:12:00.056Z,7.86
2022-11-23T05:14:27.871Z,7.83
2022-11-23T05:16:56.194Z,7.82
2022-11-23T05:19:23.951Z,7.81
2022-11-23T05:21:54.417Z,7.79
2022-11-23T05:24:22.797Z,7.80
2022-11-23T05:26:55.960Z,7.81
2022-11-23T05:29:23.903Z,7.82
2022-11-23T05:31:52.191Z,7.84
2022-11-23T05:34:19.804Z,7.81
2022-11-23T05:36:49.837Z,7.81
2022-11-23T05:39:20.102Z,7.80
2022-11-23T05:41:48.080Z,7.80
2022-11-23T05:44:16.272Z,7.80
2022-11-23T05:46:43.875Z,7.83
2022-11-23T05:49:13.461Z,7.80
2022-11-23T05:51:41.210Z,7.77
2022-11-23T05:54:09.530Z,7.80
2022-11-23T05:56:40.630Z,7.76
2022-11-23T05:59:10.052Z,7.77
2022-11-23T06:01:38.064Z,7.75
2022-11-23T06:04:07.337Z,7.76
2022-11-23T06:06:35.798Z,7.74
2022-11-23T06:09:08.730Z,7.75
2022-11-23T06:11:38.182Z,7.74
2022-11-23T06:14:12.755Z,7.77
2022-11-23T06:16:42.198Z,7.73
2022-11-23T06:19:09.802Z,7.75
2022-11-23T06:21:38.350Z,7.78
2022-11-23T06:24:07.478Z,7.76
2022-11-23T06:26:36.273Z,7.73
2022-11-23T06:29:04.254Z,7.73
2022-11-23T06:31:33.478Z,7.71
2022-11-23T06:34:01.440Z,7.74
2022-11-23T06:36:29.179Z,7.72
2022-11-23T06:38:56.848Z,7.73
2022-11-23T06:41:32.050Z,7.73
2022-11-23T06:44:00.187Z,7.68
2022-11-23T06:46:27.794Z,7.74
2022-11-23T06:48:57.027Z,7.68
2022-11-23T06:51:26.083Z,7.70
2022-11-23T06:53:53.941Z,7.73
2022-11-23T06:56:21.977Z,7.75
2022-11-23T06:58:49.858Z,7.72
2022-11-23T07:02:19.179Z,7.76
2022-11-23T07:04:48.214Z,7.74
2022-11-23T07:07:16.084Z,7.76
2022-11-23T07:09:43.705Z,7.78
2022-11-23T07:12:13.187Z,7.79
2022-11-23T07:14:41.418Z,7.80
2022-11-23T07:17:11.745Z,7.83
2022-11-23T07:19:42.022Z,7.82
2022-11-23T07:22:14.546Z,7.83
2022-11-23T07:24:46.531Z,7.82
2022-11-23T07:27:14.965Z,7.82
2022-11-23T07:29:44.304Z,7.82
2022-11-23T07:32:14.651Z,7.83
2022-11-23T07:34:42.286Z,7.84
2022-11-23T07:37:10.068Z,7.86
2022-11-23T07:42:33.927Z,7.88
2022-11-23T07:46:03.855Z,7.92
2022-11-23T07:48:36.124Z,7.94
2022-11-23T07:51:04.309Z,7.93
2022-11-23T07:53:32.182Z,7.93
2022-11-23T07:56:01.129Z,7.98
2022-11-23T07:58:29.107Z,8.04
2022-11-23T08:00:57.020Z,8.04
2022-11-23T08:03:28.631Z,8.04
2022-11-23T08:05:56.845Z,8.10
2022-11-23T08:08:24.736Z,8.11
2022-11-23T08:10:54.113Z,8.11
2022-11-23T08:13:23.898Z,8.09
2022-11-23T08:15:55.238Z,8.10
2022-11-23T08:18:24.265Z,8.15
2022-11-23T08:20:51.809Z,8.10
2022-11-23T08:23:19.448Z,8.20
2022-11-23T08:25:47.399Z,8.28
2022-11-23T08:28:15.132Z,8.35
2022-11-23T08:30:44.397Z,8.39
2022-11-23T08:33:13.918Z,8.38
2022-11-23T08:35:42.760Z,8.43
2022-11-23T08:38:11.345Z,8.41
2022-11-23T08:40:39.770Z,8.37
2022-11-23T08:43:08.295Z,8.37
2022-11-23T08:45:35.928Z,8.40
2022-11-23T08:48:06.316Z,8.44
2022-11-23T08:50:35.392Z,8.53
2022-11-23T08:53:03.051Z,8.47
2022-11-23T08:55:30.992Z,8.61
2022-11-23T08:57:59.922Z,8.60
2022-11-23T09:00:28.513Z,8.67
2022-11-23T09:02:59.081Z,8.65
2022-11-23T09:05:28.466Z,8.64
2022-11-23T09:07:56.122Z,8.74
2022-11-23T09:10:23.974Z,8.79
2022-11-23T09:12:52.826Z,8.77
2022-11-23T09:15:20.540Z,8.80
2022-11-23T09:17:48.236Z,8.85
2022-11-23T09:20:16.981Z,8.88
2022-11-23T09:22:51.949Z,8.91
2022-11-23T09:25:19.989Z,8.88
2022-11-23T09:27:48.889Z,8.97
2022-11-23T09:30:18.177Z,9.00
2022-11-23T09:32:45.811Z,9.09
2022-11-23T09:35:13.380Z,9.19
2022-11-23T09:37:41.019Z,9.31
2022-11-23T09:40:13.273Z,9.30
2022-11-23T09:42:47.454Z,9.42
2022-11-23T09:45:20.429Z,9.43
2022-11-23T09:48:00.931Z,9.56
2022-11-23T09:50:30.347Z,9.63
2022-11-23T09:52:57.919Z,9.69
2022-11-23T09:55:35.541Z,9.79
2022-11-23T09:58:05.599Z,9.80
2022-11-23T10:00:38.793Z,9.81
2022-11-23T10:03:06.851Z,9.88
2022-11-23T10:05:39.562Z,9.95
2022-11-23T10:08:12.943Z,9.94
2022-11-23T10:10:45.050Z,9.92
2022-11-23T10:13:28.723Z,9.94
2022-11-23T10:16:08.014Z,10.05
2022-11-23T10:18:43.417Z,10.09
2022-11-23T10:21:18.234Z,10.00
2022-11-23T10:23:56.286Z,10.12
2022-11-23T10:26:29.619Z,10.12
2022-11-23T10:28:58.810Z,10.06
2022-11-23T10:31:27.353Z,10.12
2022-11-23T10:33:57.834Z,10.11
2022-11-23T10:36:25.449Z,10.03
2022-11-23T10:38:56.755Z,10.06
2022-11-23T10:41:24.530Z,9.97
2022-11-23T10:43:57.725Z,9.94
2022-11-23T10:46:43.458Z,9.93
2022-11-23T10:49:17.132Z,10.05
2022-11-23T10:51:53.542Z,10.06
2022-11-23T10:54:27.628Z,10.01
2022-11-23T10:56:56.401Z,9.99
2022-11-23T10:59:35.410Z,10.05
2022-11-23T11:02:12.685Z,10.02
2022-11-23T11:04:41.467Z,10.04
2022-11-23T11:07:29.873Z,9.92
2022-11-23T11:09:59.449Z,9.95
2022-11-23T11:12:28.966Z,10.09
2022-11-23T11:15:10.816Z,10.08
2022-11-23T11:17:41.098Z,10.09
2022-11-23T11:20:25.081Z,10.15
2022-11-23T11:22:52.768Z,10.00
2022-11-23T11:25:29.651Z,10.16
2022-11-23T11:27:58.356Z,10.11
2022-11-23T11:30:31.372Z,10.09
2022-11-23T11:33:04.965Z,10.10
2022-11-23T11:35:34.925Z,10.13
2022-11-23T11:38:05.805Z,10.28
2022-11-23T11:40:35.622Z,10.37
2022-11-23T11:43:05.665Z,10.13
2022-11-23T11:45:38.942Z,10.20
2022-11-23T11:48:12.130Z,10.17
2022-11-23T11:50:44.098Z,10.13
2022-11-23T11:53:14.983Z,10.03
2022-11-23T11:55:49.791Z,9.99
2022-11-23T11:58:18.298Z,10.21
2022-11-23T12:00:48.813Z,10.19
2022-11-23T12:03:23.875Z,10.24
2022-11-23T12:05:53.077Z,10.21
2022-11-23T12:08:24.893Z,10.33
2022-11-23T12:10:54.117Z,10.34
2022-11-23T12:13:24.007Z,10.36
2022-11-23T12:15:59.451Z,10.14
2022-11-23T12:18:36.693Z,9.99
2022-11-23T12:21:06.813Z,9.96
2022-11-23T12:23:44.875Z,10.04
2022-11-23T12:26:20.524Z,10.04
2022-11-23T12:29:12.605Z,10.00
2022-11-23T12:31:45.219Z,10.07
2022-11-23T12:34:25.954Z,10.20
2022-11-23T12:37:13.566Z,10.01
2022-11-23T12:39:59.643Z,10.07
2022-11-23T12:42:33.479Z,9.96
2022-11-23T12:45:10.978Z,10.43
2022-11-23T12:47:47.594Z,10.51
2022-11-23T12:50:23.157Z,10.30
2022-11-23T12:53:01.140Z,10.38
2022-11-23T12:55:34.087Z,10.41
2022-11-23T12:58:05.952Z,10.41
2022-11-23T13:00:37.652Z,10.28
2022-11-23T13:03:28.431Z,10.32
2022-11-23T13:06:27.315Z,10.31
2022-11-23T13:09:17.905Z,10.27
2022-11-23T13:12:02.444Z,10.36
2022-11-23T13:14:35.625Z,10.28
2022-11-23T13:17:13.001Z,10.31
2022-11-23T13:20:05.543Z,10.42
2022-11-23T13:22:34.390Z,10.28
2022-11-23T13:25:15.089Z,10.36
2022-11-23T13:27:44.578Z,10.02
2022-11-23T13:30:25.184Z,10.28
2022-11-23T13:32:58.656Z,10.33
2022-11-23T13:35:56.913Z,10.41
2022-11-23T13:38:38.618Z,10.42
2022-11-23T13:41:55.448Z,10.27
2022-11-23T13:44:25.701Z,11.05
2022-11-23T13:47:05.973Z,11.70
2022-11-23T13:49:36.908Z,12.08
2022-11-23T13:52:36.295Z,11.86
2022-11-23T13:55:21.973Z,11.52
2022-11-23T13:58:23.883Z,11.80
2022-11-23T14:00:53.505Z,11.46
2022-11-23T14:03:52.065Z,11.62
2022-11-23T14:06:23.966Z,11.29
2022-11-23T14:08:56.594Z,11.04
2022-11-23T14:11:24.965Z,10.75
2022-11-23T14:13:55.941Z,10.53
2022-11-23T14:16:40.529Z,10.21
2022-11-23T14:19:19.004Z,10.09
2022-11-23T14:21:54.112Z,9.92
2022-11-23T14:24:38.213Z,9.66
2022-11-23T14:27:46.291Z,9.88
2022-11-23T14:30:22.562Z,9.70
2022-11-23T14:33:07.232Z,9.57
2022-11-23T14:35:44.989Z,9.26
2022-11-23T14:38:46.437Z,9.09
2022-11-23T14:41:18.224Z,8.89
2022-11-23T14:43:47.780Z,8.82
2022-11-23T14:46:19.392Z,8.73
2022-11-23T14:48:49.801Z,8.48
2022-11-23T14:51:19.348Z,8.46
2022-11-23T14:53:51.080Z,8.23
2022-11-23T14:56:36.009Z,8.30
2022-11-23T14:59:06.049Z,8.20
2022-11-23T15:01:34.829Z,8.21
2022-11-23T15:04:09.566Z,8.38
2022-11-23T15:06:45.307Z,8.14
2022-11-23T15:09:18.565Z,7.92
2022-11-23T15:11:52.791Z,7.94
2022-11-23T15:14:27.112Z,8.00
2022-11-23T15:16:54.989Z,8.05
2022-11-23T15:19:28.693Z,8.07
2022-11-23T15:21:57.898Z,7.85
2022-11-23T15:24:27.204Z,7.58
2022-11-23T15:27:10.890Z,7.27
2022-11-23T15:29:52.873Z,7.27
2022-11-23T15:32:32.066Z,7.16
2022-11-23T15:35:04.535Z,7.06
2022-11-23T15:37:34.530Z,6.88
2022-11-23T15:40:14.304Z,6.76
2022-11-23T15:42:44.762Z,6.79
2022-11-23T15:45:35.123Z,6.60
2022-11-23T15:48:03.491Z,6.72
2022-11-23T15:50:34.409Z,6.52
2022-11-23T15:53:02.506Z,6.66
2022-11-23T15:55:31.875Z,6.64
2022-11-23T15:58:07.553Z,6.54
2022-11-23T16:00:35.605Z,6.60
2022-11-23T16:03:28.375Z,6.65
2022-11-23T16:06:25.650Z,6.72
2022-11-23T16:08:55.122Z,6.97
2022-11-23T16:11:31.076Z,7.22
2022-11-23T16:14:18.085Z,7.24
2022-11-23T16:16:47.791Z,7.49
2022-11-23T16:19:26.620Z,7.56
2022-11-23T16:22:01.987Z,7.65
2022-11-23T16:24:31.595Z,7.66
2022-11-23T16:27:00.775Z,7.71
2022-11-23T16:29:37.036Z,7.68
2022-11-23T16:32:07.180Z,7.69
2022-11-23T16:34:36.553Z,7.73
2022-11-23T16:37:10.384Z,7.74
2022-11-23T16:39:38.085Z,7.78
2022-11-23T16:42:05.818Z,7.77
2022-11-23T16:44:40.138Z,7.71
2022-11-23T16:47:23.337Z,7.48
2022-11-23T16:49:51.484Z,7.46
2022-11-23T16:52:19.376Z,7.48
2022-11-23T16:54:46.932Z,7.57
2022-11-23T16:57:29.135Z,7.49
2022-11-23T17:00:04.608Z,7.54
2022-11-23T17:02:37.299Z,7.49
2022-11-23T17:05:07.848Z,7.50
2022-11-23T17:07:35.537Z,7.55
2022-11-23T17:10:05.259Z,7.54
2022-11-23T17:12:33.041Z,7.44
2022-11-23T17:15:02.012Z,7.51
2022-11-23T17:17:30.482Z,7.49
2022-11-23T17:20:03.662Z,7.52
2022-11-23T17:22:32.775Z,7.50
2022-11-23T17:25:03.137Z,7.53
2022-11-23T17:27:34.034Z,7.54
2022-11-23T17:30:03.867Z,7.55
2022-11-23T17:32:31.946Z,7.57
2022-11-23T17:35:00.577Z,7.61
2022-11-23T17:37:29.080Z,7.60
2022-11-23T17:39:56.873Z,7.61
2022-11-23T17:42:27.010Z,7.63
2022-11-23T17:44:56.476Z,7.71
2022-11-23T17:47:28.897Z,7.83
2022-11-23T17:49:56.841Z,7.86
2022-11-23T17:52:26.149Z,7.95
2022-11-23T17:54:54.377Z,8.02
2022-11-23T17:57:25.004Z,8.13
2022-11-23T17:59:54.496Z,7.98
2022-11-23T18:02:23.430Z,8.03
2022-11-23T18:04:52.983Z,8.02
2022-11-23T18:07:22.549Z,7.90
2022-11-23T18:09:52.390Z,7.95
2022-11-23T18:12:21.627Z,7.94
2022-11-23T18:14:50.025Z,7.88
2022-11-23T18:17:19.057Z,7.76
2022-11-23T18:19:46.646Z,7.83
2022-11-23T18:22:16.465Z,7.59
2022-11-23T18:24:45.762Z,7.65
2022-11-23T18:27:14.537Z,7.69
2022-11-23T18:29:43.043Z,7.57
2022-11-23T18:32:11.259Z,7.59
2022-11-23T18:34:39.514Z,7.57
2022-11-23T18:37:08.253Z,7.54
2022-11-23T18:39:37.933Z,7.47
2022-11-23T18:42:07.015Z,7.50
2022-11-23T18:44:36.227Z,7.52
2022-11-23T18:47:05.468Z,7.49
2022-11-23T18:49:33.266Z,7.47
2022-11-23T18:52:01.987Z,7.47
2022-11-23T18:54:30.629Z,7.53
2022-11-23T18:57:01.221Z,7.38
2022-11-23T18:59:56.309Z,7.45
2022-11-23T19:02:18.453Z,7.46
2022-11-23T19:04:46.188Z,7.43
2022-11-23T19:07:14.046Z,7.39
2022-11-23T19:09:43.505Z,7.41
2022-11-23T19:12:17.408Z,7.40
2022-11-23T19:15:49.603Z,7.44
2022-11-23T19:18:19.255Z,7.43
2022-11-23T19:20:48.935Z,7.41
2022-11-23T19:23:23.527Z,7.41
2022-11-23T19:26:57.961Z,7.42
2022-11-23T19:29:28.854Z,7.48
2022-11-23T19:31:56.713Z,7.49
2022-11-23T19:34:24.282Z,7.44
2022-11-23T19:36:51.841Z,7.40
2022-11-23T19:39:20.333Z,7.42
2022-11-23T19:41:48.216Z,7.42
2022-11-23T19:44:16.466Z,7.42
2022-11-23T19:46:45.544Z,7.38
2022-11-23T19:49:13.135Z,7.39
2022-11-23T19:51:41.643Z,7.39
2022-11-23T19:54:12.127Z,7.41
2022-11-23T19:56:40.025Z,7.40
2022-11-23T19:59:07.662Z,7.40
2022-11-23T20:01:36.184Z,7.44
2022-11-23T20:04:09.667Z,7.42
2022-11-23T20:06:42.422Z,7.44
2022-11-23T20:09:11.848Z,7.40
2022-11-23T20:11:50.680Z,7.43
2022-11-23T20:14:21.406Z,7.44
2022-11-23T20:16:49.154Z,7.47
2022-11-23T20:19:20.444Z,7.43
2022-11-23T20:21:48.150Z,7.46
2022-11-23T20:24:16.474Z,7.47
2022-11-23T20:26:46.102Z,7.51
2022-11-23T20:29:14.790Z,7.50
2022-11-23T20:31:44.717Z,7.54
2022-11-23T20:34:20.453Z,7.53
2022-11-23T20:36:50.330Z,7.53
2022-11-23T20:39:18.637Z,7.54
2022-11-23T20:41:52.063Z,7.57
2022-11-23T20:44:20.831Z,7.61
2022-11-23T20:47:01.665Z,7.60
2022-11-23T20:49:30.721Z,7.60
2022-11-23T20:51:59.693Z,7.64
2022-11-23T20:54:29.077Z,7.60
2022-11-23T20:56:59.764Z,7.63
2022-11-23T20:59:27.489Z,7.64
2022-11-23T21:01:56.287Z,7.68
2022-11-23T21:04:25.294Z,7.63
2022-11-23T21:06:53.490Z,7.60
2022-11-23T21:09:22.668Z,7.57
2022-11-23T21:12:11.448Z,7.59
2022-11-23T21:14:40.665Z,7.59
2022-11-23T21:17:08.444Z,7.59
2022-11-23T21:19:37.919Z,7.62
2022-11-23T21:22:08.469Z,7.63
2022-11-23T21:24:39.407Z,7.60
2022-11-23T21:27:09.782Z,7.56
2022-11-23T21:29:39.264Z,7.52
2022-11-23T21:32:08.935Z,7.54
2022-11-23T21:34:36.970Z,7.51
2022-11-23T21:37:04.998Z,7.42
2022-11-23T21:39:35.215Z,7.32
2022-11-23T21:42:06.555Z,7.21
2022-11-23T21:44:36.549Z,7.15
2022-11-23T21:47:04.404Z,6.97
2022-11-23T21:49:32.103Z,6.85
2022-11-23T21:52:00.612Z,6.71
2022-11-23T21:54:28.219Z,6.83
2022-11-23T21:56:57.987Z,6.83
2022-11-23T21:59:26.914Z,6.84
2022-11-23T22:01:58.545Z,6.72
2022-11-23T22:04:27.460Z,6.61
2022-11-23T22:06:55.617Z,6.62
2022-11-23T22:09:24.292Z,6.53
2022-11-23T22:11:54.554Z,6.49
2022-11-23T22:14:22.543Z,6.35
2022-11-23T22:16:53.596Z,6.34
2022-11-23T22:19:21.506Z,6.25
2022-11-23T22:21:50.609Z,6.03
2022-11-23T22:24:22.313Z,6.13
2022-11-23T22:26:52.222Z,6.10
2022-11-23T22:29:20.922Z,6.15
2022-11-23T22:31:50.835Z,6.12
2022-11-23T22:34:20.485Z,6.14
2022-11-23T22:36:51.571Z,6.02
2022-11-23T22:39:20.063Z,6.08
2022-11-23T22:41:51.888Z,6.08
2022-11-23T22:44:19.616Z,5.81
2022-11-23T22:46:47.221Z,5.85
2022-11-23T22:49:15.738Z,5.85
2022-11-23T22:51:50.122Z,5.77
2022-11-23T22:54:18.669Z,5.86
2022-11-23T22:56:52.298Z,5.76
2022-11-23T22:59:20.587Z,5.56
2022-11-23T23:01:50.773Z,5.74
2022-11-23T23:04:18.613Z,5.83
2022-11-23T23:06:50.851Z,5.73
2022-11-23T23:09:18.647Z,5.80
2022-11-23T23:11:47.090Z,6.03
2022-11-23T23:14:15.965Z,6.13
2022-11-23T23:16:44.159Z,6.22
2022-11-23T23:19:13.645Z,5.97
2022-11-23T23:21:42.290Z,5.94
2022-11-23T23:24:15.726Z,6.00
2022-11-23T23:26:43.180Z,6.00
2022-11-23T23:29:11.771Z,5.94
2022-11-23T23:31:40.145Z,5.85
2022-11-23T23:34:10.243Z,5.89
2022-11-23T23:36:40.913Z,5.87
2022-11-23T23:39:09.347Z,5.91
2022-11-23T23:42:40.292Z,5.75
2022-11-23T23:45:10.949Z,5.89
2022-11-23T23:47:40.493Z,5.93
2022-11-23T23:50:09.834Z,5.92
2022-11-23T23:52:38.265Z,6.05
2022-11-23T23:55:06.876Z,6.16
2022-11-23T23:57:35.114Z,6.04
